sensor_id;sensor_type;location;lat;lon;timestamp;temperature;humidity
6556;DHT22;3311;48.32423000;14.29074500;2022-09-27T05:35:25;16.10;81.00
6556;DHT22;3311;48.32423000;14.29074500;2022-09-27T05:37:53;16.00;81.20
6556;DHT22;3311;48.32423000;14.29074500;2022-09-27T05:40:21;16.00;81.20
6556;DHT22;3311;48.32423000;14.29074500;2022-09-27T05:42:50;16.10;81.20
6556;DHT22;3311;48.32423000;14.29074500;2022-09-27T05:45:18;16.10;81.60
6556;DHT22;3311;48.32423000;14.29074500;2022-09-27T05:47:54;16.10;81.10
6556;DHT22;3311;48.32423000;14.29074500;2022-09-27T05:50:23;16.10;81.00
6556;DHT22;3311;48.32423000;14.29074500;2022-09-27T05:52:51;16.10;80.90
6556;DHT22;3311;48.32423000;14.29074500;2022-09-27T05:55:19;16.00;81.30
6556;DHT22;3311;48.32423000;14.29074500;2022-09-27T05:57:57;15.90;81.40
6556;DHT22;3311;48.32423000;14.29074500;2022-09-27T06:00:25;16.00;81.80
6556;DHT22;3311;48.32423000;14.29074500;2022-09-27T06:02:54;16.10;81.30
6556;DHT22;3311;48.32423000;14.29074500;2022-09-27T06:05:24;16.20;81.00
6556;DHT22;3311;48.32423000;14.29074500;2022-09-27T06:07:57;16.30;80.80
6556;DHT22;3311;48.32423000;14.29074500;2022-09-27T06:10:25;16.30;80.50
6556;DHT22;3311;48.32423000;14.29074500;2022-09-27T06:12:52;16.40;80.50
6556;DHT22;3311;48.32423000;14.29074500;2022-09-27T06:15:21;16.40;80.40
6556;DHT22;3311;48.32423000;14.29074500;2022-09-27T06:17:48;16.40;80.40
6556;DHT22;3311;48.32423000;14.29074500;2022-09-27T06:20:15;16.40;80.40
6556;DHT22;3311;48.32423000;14.29074500;2022-09-27T06:22:44;16.30;80.40
6556;DHT22;3311;48.32423000;14.29074500;2022-09-27T06:25:12;16.40;80.60
6556;DHT22;3311;48.32423000;14.29074500;2022-09-27T06:27:39;16.40;80.40
6556;DHT22;3311;48.32423000;14.29074500;2022-09-27T06:30:08;16.30;80.70
6556;DHT22;3311;48.32423000;14.29074500;2022-09-27T06:32:37;16.30;80.70
6556;DHT22;3311;48.32423000;14.29074500;2022-09-27T06:35:05;16.30;80.80
6556;DHT22;3311;48.32423000;14.29074500;2022-09-27T06:37:32;16.30;80.80
6556;DHT22;3311;48.32423000;14.29074500;2022-09-27T06:40:01;16.30;80.80
6556;DHT22;3311;48.32423000;14.29074500;2022-09-27T06:42:29;16.30;80.80
6556;DHT22;3311;48.32423000;14.29074500;2022-09-27T06:44:57;16.30;80.90
6556;DHT22;3311;48.32423000;14.29074500;2022-09-27T06:47:25;16.30;80.80
6556;DHT22;3311;48.32423000;14.29074500;2022-09-27T06:49:54;16.30;81.00
6556;DHT22;3311;48.32423000;14.29074500;2022-09-27T06:52:21;16.20;80.80
6556;DHT22;3311;48.32423000;14.29074500;2022-09-27T06:54:48;16.20;80.80
6556;DHT22;3311;48.32423000;14.29074500;2022-09-27T06:57:17;16.20;81.00
6556;DHT22;3311;48.32423000;14.29074500;2022-09-27T07:00:06;16.30;81.10
6556;DHT22;3311;48.32423000;14.29074500;2022-09-27T07:02:52;16.30;81.00
6556;DHT22;3311;48.32423000;14.29074500;2022-09-27T07:05:20;16.30;80.90
6556;DHT22;3311;48.32423000;14.29074500;2022-09-27T07:07:47;16.30;80.80
6556;DHT22;3311;48.32423000;14.29074500;2022-09-27T07:10:15;16.30;80.70
6556;DHT22;3311;48.32423000;14.29074500;2022-09-27T07:12:44;16.30;81.10
6556;DHT22;3311;48.32423000;14.29074500;2022-09-27T07:15:13;16.30;81.10
6556;DHT22;3311;48.32423000;14.29074500;2022-09-27T07:17:41;16.30;81.00
6556;DHT22;3311;48.32423000;14.29074500;2022-09-27T07:20:08;16.30;80.90
6556;DHT22;3311;48.32423000;14.29074500;2022-09-27T07:22:39;16.40;80.90
6556;DHT22;3311;48.32423000;14.29074500;2022-09-27T07:25:09;16.40;80.90
6556;DHT22;3311;48.32423000;14.29074500;2022-09-27T07:27:36;16.40;80.90
6556;DHT22;3311;48.32423000;14.29074500;2022-09-27T07:30:10;16.40;81.00
6556;DHT22;3311;48.32423000;14.29074500;2022-09-27T07:32:38;16.40;80.90
6556;DHT22;3311;48.32423000;14.29074500;2022-09-27T07:35:07;16.40;81.00
6556;DHT22;3311;48.32423000;14.29074500;2022-09-27T07:37:35;16.40;81.00
6556;DHT22;3311;48.32423000;14.29074500;2022-09-27T07:40:06;16.40;81.10
6556;DHT22;3311;48.32423000;14.29074500;2022-09-27T07:42:34;16.40;80.90
6556;DHT22;3311;48.32423000;14.29074500;2022-09-27T07:45:03;16.50;80.70
6556;DHT22;3311;48.32423000;14.29074500;2022-09-27T07:47:33;16.50;80.60
6556;DHT22;3311;48.32423000;14.29074500;2022-09-27T07:50:02;16.50;80.70
6556;DHT22;3311;48.32423000;14.29074500;2022-09-27T07:52:29;16.50;80.60
6556;DHT22;3311;48.32423000;14.29074500;2022-09-27T07:54:57;16.60;80.40
6556;DHT22;3311;48.32423000;14.29074500;2022-09-27T07:57:24;16.50;80.20
6556;DHT22;3311;48.32423000;14.29074500;2022-09-27T07:59:51;16.60;80.30
6556;DHT22;3311;48.32423000;14.29074500;2022-09-27T08:02:18;16.50;80.30
6556;DHT22;3311;48.32423000;14.29074500;2022-09-27T08:04:47;16.60;80.20
6556;DHT22;3311;48.32423000;14.29074500;2022-09-27T08:07:15;16.50;80.10
6556;DHT22;3311;48.32423000;14.29074500;2022-09-27T08:09:43;16.60;80.20
6556;DHT22;3311;48.32423000;14.29074500;2022-09-27T08:12:10;16.60;80.20
6556;DHT22;3311;48.32423000;14.29074500;2022-09-27T08:14:37;16.50;80.30
6556;DHT22;3311;48.32423000;14.29074500;2022-09-27T08:17:04;16.50;80.30
6556;DHT22;3311;48.32423000;14.29074500;2022-09-27T08:19:32;16.50;80.20
6556;DHT22;3311;48.32423000;14.29074500;2022-09-27T08:22:00;16.60;80.20
6556;DHT22;3311;48.32423000;14.29074500;2022-09-27T08:24:27;16.50;80.40
6556;DHT22;3311;48.32423000;14.29074500;2022-09-27T08:26:55;16.60;80.00
6556;DHT22;3311;48.32423000;14.29074500;2022-09-27T08:29:22;16.60;79.80
6556;DHT22;3311;48.32423000;14.29074500;2022-09-27T08:31:50;16.60;79.60
6556;DHT22;3311;48.32423000;14.29074500;2022-09-27T08:34:18;16.60;79.70
6556;DHT22;3311;48.32423000;14.29074500;2022-09-27T08:36:46;16.60;79.30
6556;DHT22;3311;48.32423000;14.29074500;2022-09-27T08:39:15;16.60;79.40
6556;DHT22;3311;48.32423000;14.29074500;2022-09-27T08:41:48;16.60;79.20
6556;DHT22;3311;48.32423000;14.29074500;2022-09-27T08:44:20;16.60;79.00
6556;DHT22;3311;48.32423000;14.29074500;2022-09-27T08:46:57;16.60;78.90
6556;DHT22;3311;48.32423000;14.29074500;2022-09-27T08:49:32;16.60;79.00
6556;DHT22;3311;48.32423000;14.29074500;2022-09-27T08:52:05;16.60;78.90
6556;DHT22;3311;48.32423000;14.29074500;2022-09-27T08:54:35;16.70;78.70
6556;DHT22;3311;48.32423000;14.29074500;2022-09-27T08:57:07;16.70;78.90
6556;DHT22;3311;48.32423000;14.29074500;2022-09-27T08:59:41;16.70;78.70
6556;DHT22;3311;48.32423000;14.29074500;2022-09-27T09:02:16;16.70;78.50
6556;DHT22;3311;48.32423000;14.29074500;2022-09-27T09:04:45;16.60;78.80
6556;DHT22;3311;48.32423000;14.29074500;2022-09-27T09:07:34;16.60;78.90
6556;DHT22;3311;48.32423000;14.29074500;2022-09-27T09:10:17;16.60;78.40
6556;DHT22;3311;48.32423000;14.29074500;2022-09-27T09:13:07;16.70;78.50
6556;DHT22;3311;48.32423000;14.29074500;2022-09-27T09:15:42;16.60;78.20
6556;DHT22;3311;48.32423000;14.29074500;2022-09-27T09:18:38;16.70;78.70
6556;DHT22;3311;48.32423000;14.29074500;2022-09-27T09:21:17;16.70;78.40
6556;DHT22;3311;48.32423000;14.29074500;2022-09-27T09:24:07;16.60;78.10
6556;DHT22;3311;48.32423000;14.29074500;2022-09-27T09:26:47;16.70;78.70
6556;DHT22;3311;48.32423000;14.29074500;2022-09-27T09:29:26;16.70;78.50
6556;DHT22;3311;48.32423000;14.29074500;2022-09-27T09:32:03;16.70;78.50
6556;DHT22;3311;48.32423000;14.29074500;2022-09-27T09:34:38;16.80;78.40
6556;DHT22;3311;48.32423000;14.29074500;2022-09-27T09:37:11;16.80;78.10
6556;DHT22;3311;48.32423000;14.29074500;2022-09-27T09:39:45;16.80;79.20
6556;DHT22;3311;48.32423000;14.29074500;2022-09-27T09:42:21;16.80;79.00
6556;DHT22;3311;48.32423000;14.29074500;2022-09-27T09:44:54;16.80;78.70
6556;DHT22;3311;48.32423000;14.29074500;2022-09-27T09:47:28;16.80;78.50
6556;DHT22;3311;48.32423000;14.29074500;2022-09-27T09:49:59;16.90;78.50
6556;DHT22;3311;48.32423000;14.29074500;2022-09-27T09:52:37;16.90;78.30
6556;DHT22;3311;48.32423000;14.29074500;2022-09-27T09:55:12;17.00;78.40
6556;DHT22;3311;48.32423000;14.29074500;2022-09-27T09:57:53;17.00;78.30
6556;DHT22;3311;48.32423000;14.29074500;2022-09-27T10:00:22;16.90;78.60
6556;DHT22;3311;48.32423000;14.29074500;2022-09-27T10:02:52;17.00;78.50
6556;DHT22;3311;48.32423000;14.29074500;2022-09-27T10:05:22;17.00;78.20
6556;DHT22;3311;48.32423000;14.29074500;2022-09-27T10:07:52;17.00;78.20
6556;DHT22;3311;48.32423000;14.29074500;2022-09-27T10:10:20;17.10;78.10
6556;DHT22;3311;48.32423000;14.29074500;2022-09-27T10:12:50;17.30;77.80
6556;DHT22;3311;48.32423000;14.29074500;2022-09-27T10:15:19;17.50;77.20
6556;DHT22;3311;48.32423000;14.29074500;2022-09-27T10:17:49;17.50;77.00
6556;DHT22;3311;48.32423000;14.29074500;2022-09-27T10:20:25;17.50;76.70
6556;DHT22;3311;48.32423000;14.29074500;2022-09-27T10:22:58;17.50;76.30
6556;DHT22;3311;48.32423000;14.29074500;2022-09-27T10:25:45;17.50;76.00
6556;DHT22;3311;48.32423000;14.29074500;2022-09-27T10:28:29;17.40;76.40
6556;DHT22;3311;48.32423000;14.29074500;2022-09-27T10:30:59;17.50;75.80
6556;DHT22;3311;48.32423000;14.29074500;2022-09-27T10:33:28;17.60;75.40
6556;DHT22;3311;48.32423000;14.29074500;2022-09-27T10:35:57;17.70;75.40
6556;DHT22;3311;48.32423000;14.29074500;2022-09-27T10:38:28;17.60;75.50
6556;DHT22;3311;48.32423000;14.29074500;2022-09-27T10:40:58;17.60;75.40
6556;DHT22;3311;48.32423000;14.29074500;2022-09-27T10:43:42;17.50;75.20
6556;DHT22;3311;48.32423000;14.29074500;2022-09-27T10:46:16;17.60;75.00
6556;DHT22;3311;48.32423000;14.29074500;2022-09-27T10:48:47;17.60;74.90
6556;DHT22;3311;48.32423000;14.29074500;2022-09-27T10:51:33;17.60;75.00
6556;DHT22;3311;48.32423000;14.29074500;2022-09-27T10:54:01;17.70;74.80
6556;DHT22;3311;48.32423000;14.29074500;2022-09-27T10:56:30;17.70;74.50
6556;DHT22;3311;48.32423000;14.29074500;2022-09-27T10:59:00;17.70;74.60
6556;DHT22;3311;48.32423000;14.29074500;2022-09-27T11:01:40;17.70;74.50
6556;DHT22;3311;48.32423000;14.29074500;2022-09-27T11:04:19;17.60;74.00
6556;DHT22;3311;48.32423000;14.29074500;2022-09-27T11:06:48;17.60;73.80
6556;DHT22;3311;48.32423000;14.29074500;2022-09-27T11:09:18;17.60;73.90
6556;DHT22;3311;48.32423000;14.29074500;2022-09-27T11:11:49;17.60;74.30
6556;DHT22;3311;48.32423000;14.29074500;2022-09-27T11:14:20;17.70;74.00
6556;DHT22;3311;48.32423000;14.29074500;2022-09-27T11:17:07;17.70;73.80
6556;DHT22;3311;48.32423000;14.29074500;2022-09-27T11:19:57;17.70;73.70
6556;DHT22;3311;48.32423000;14.29074500;2022-09-27T11:25:49;17.70;73.10
6556;DHT22;3311;48.32423000;14.29074500;2022-09-27T11:28:35;17.60;72.40
6556;DHT22;3311;48.32423000;14.29074500;2022-09-27T11:31:12;17.60;73.10
6556;DHT22;3311;48.32423000;14.29074500;2022-09-27T11:34:00;17.60;73.40
6556;DHT22;3311;48.32423000;14.29074500;2022-09-27T11:36:43;17.50;73.10
6556;DHT22;3311;48.32423000;14.29074500;2022-09-27T11:39:22;17.50;73.40
6556;DHT22;3311;48.32423000;14.29074500;2022-09-27T11:42:12;17.50;73.30
6556;DHT22;3311;48.32423000;14.29074500;2022-09-27T11:44:55;17.50;73.40
6556;DHT22;3311;48.32423000;14.29074500;2022-09-27T11:47:35;17.50;73.20
6556;DHT22;3311;48.32423000;14.29074500;2022-09-27T11:50:49;17.50;73.20
6556;DHT22;3311;48.32423000;14.29074500;2022-09-27T11:53:48;17.50;73.30
6556;DHT22;3311;48.32423000;14.29074500;2022-09-27T11:56:28;17.40;73.10
6556;DHT22;3311;48.32423000;14.29074500;2022-09-27T11:59:11;17.50;73.20
6556;DHT22;3311;48.32423000;14.29074500;2022-09-27T12:01:51;17.50;73.60
6556;DHT22;3311;48.32423000;14.29074500;2022-09-27T12:07:21;17.60;73.30
6556;DHT22;3311;48.32423000;14.29074500;2022-09-27T12:09:52;17.60;72.90
6556;DHT22;3311;48.32423000;14.29074500;2022-09-27T12:12:23;17.60;72.50
6556;DHT22;3311;48.32423000;14.29074500;2022-09-27T12:14:54;17.60;72.40
6556;DHT22;3311;48.32423000;14.29074500;2022-09-27T12:17:26;17.60;72.50
6556;DHT22;3311;48.32423000;14.29074500;2022-09-27T12:20:01;17.60;72.40
6556;DHT22;3311;48.32423000;14.29074500;2022-09-27T12:22:33;17.60;72.30
6556;DHT22;3311;48.32423000;14.29074500;2022-09-27T12:25:03;17.70;72.30
6556;DHT22;3311;48.32423000;14.29074500;2022-09-27T12:27:35;17.60;71.40
6556;DHT22;3311;48.32423000;14.29074500;2022-09-27T12:30:05;17.60;72.30
6556;DHT22;3311;48.32423000;14.29074500;2022-09-27T12:32:36;17.60;71.90
6556;DHT22;3311;48.32423000;14.29074500;2022-09-27T12:35:17;17.60;71.40
6556;DHT22;3311;48.32423000;14.29074500;2022-09-27T12:37:48;17.60;71.50
6556;DHT22;3311;48.32423000;14.29074500;2022-09-27T12:40:20;17.60;71.60
6556;DHT22;3311;48.32423000;14.29074500;2022-09-27T12:42:51;17.50;71.80
6556;DHT22;3311;48.32423000;14.29074500;2022-09-27T12:45:38;17.50;72.00
6556;DHT22;3311;48.32423000;14.29074500;2022-09-27T12:48:13;17.40;71.50
6556;DHT22;3311;48.32423000;14.29074500;2022-09-27T12:50:45;17.50;72.00
6556;DHT22;3311;48.32423000;14.29074500;2022-09-27T12:53:17;17.50;71.70
6556;DHT22;3311;48.32423000;14.29074500;2022-09-27T13:01:56;17.60;72.10
6556;DHT22;3311;48.32423000;14.29074500;2022-09-27T13:04:51;17.60;72.00
6556;DHT22;3311;48.32423000;14.29074500;2022-09-27T13:07:34;17.70;72.00
6556;DHT22;3311;48.32423000;14.29074500;2022-09-27T13:10:28;17.70;72.00
6556;DHT22;3311;48.32423000;14.29074500;2022-09-27T13:12:59;17.70;71.40
6556;DHT22;3311;48.32423000;14.29074500;2022-09-27T13:15:31;17.70;71.70
6556;DHT22;3311;48.32423000;14.29074500;2022-09-27T13:18:00;17.70;72.00
6556;DHT22;3311;48.32423000;14.29074500;2022-09-27T13:20:41;17.80;71.50
6556;DHT22;3311;48.32423000;14.29074500;2022-09-27T13:26:49;17.70;69.60
6556;DHT22;3311;48.32423000;14.29074500;2022-09-27T13:29:28;17.70;70.00
6556;DHT22;3311;48.32423000;14.29074500;2022-09-27T13:32:21;17.60;69.30
6556;DHT22;3311;48.32423000;14.29074500;2022-09-27T13:34:51;17.60;67.90
6556;DHT22;3311;48.32423000;14.29074500;2022-09-27T13:40:23;17.70;65.30
6556;DHT22;3311;48.32423000;14.29074500;2022-09-27T13:45:55;17.70;64.40
6556;DHT22;3311;48.32423000;14.29074500;2022-09-27T13:48:28;17.70;64.30
6556;DHT22;3311;48.32423000;14.29074500;2022-09-27T13:51:01;17.70;64.30
6556;DHT22;3311;48.32423000;14.29074500;2022-09-27T13:53:32;17.60;63.00
6556;DHT22;3311;48.32423000;14.29074500;2022-09-27T13:56:02;15.80;60.30
6556;DHT22;3311;48.32423000;14.29074500;2022-09-27T13:58:39;17.70;62.00
6556;DHT22;3311;48.32423000;14.29074500;2022-09-27T14:01:21;17.60;61.80
6556;DHT22;3311;48.32423000;14.29074500;2022-09-27T14:03:55;17.60;61.90
6556;DHT22;3311;48.32423000;14.29074500;2022-09-27T14:06:27;17.60;62.00
6556;DHT22;3311;48.32423000;14.29074500;2022-09-27T14:08:58;17.60;62.00
6556;DHT22;3311;48.32423000;14.29074500;2022-09-27T14:11:31;17.60;62.20
6556;DHT22;3311;48.32423000;14.29074500;2022-09-27T14:14:02;17.60;62.20
6556;DHT22;3311;48.32423000;14.29074500;2022-09-27T14:16:33;17.60;62.30
6556;DHT22;3311;48.32423000;14.29074500;2022-09-27T14:19:02;17.60;62.50
6556;DHT22;3311;48.32423000;14.29074500;2022-09-27T14:21:32;17.70;62.40
6556;DHT22;3311;48.32423000;14.29074500;2022-09-27T14:24:20;17.60;62.00
6556;DHT22;3311;48.32423000;14.29074500;2022-09-27T14:26:47;17.50;61.50
6556;DHT22;3311;48.32423000;14.29074500;2022-09-27T14:29:19;17.50;62.20
6556;DHT22;3311;48.32423000;14.29074500;2022-09-27T14:32:01;17.40;62.50
6556;DHT22;3311;48.32423000;14.29074500;2022-09-27T14:34:29;17.40;63.10
6556;DHT22;3311;48.32423000;14.29074500;2022-09-27T14:36:56;17.40;63.40
6556;DHT22;3311;48.32423000;14.29074500;2022-09-27T14:39:42;17.40;63.80
6556;DHT22;3311;48.32423000;14.29074500;2022-09-27T14:42:18;17.50;64.10
6556;DHT22;3311;48.32423000;14.29074500;2022-09-27T14:44:48;17.50;64.30
6556;DHT22;3311;48.32423000;14.29074500;2022-09-27T14:47:18;17.50;64.50
6556;DHT22;3311;48.32423000;14.29074500;2022-09-27T14:49:48;17.60;64.70
6556;DHT22;3311;48.32423000;14.29074500;2022-09-27T14:52:17;17.60;64.80
6556;DHT22;3311;48.32423000;14.29074500;2022-09-27T14:54:55;17.60;65.00
6556;DHT22;3311;48.32423000;14.29074500;2022-09-27T14:57:24;17.60;65.10
6556;DHT22;3311;48.32423000;14.29074500;2022-09-27T14:59:54;17.60;65.20
6556;DHT22;3311;48.32423000;14.29074500;2022-09-27T15:02:23;17.60;65.40
6556;DHT22;3311;48.32423000;14.29074500;2022-09-27T15:04:52;17.60;65.50
6556;DHT22;3311;48.32423000;14.29074500;2022-09-27T15:07:20;17.60;65.60
6556;DHT22;3311;48.32423000;14.29074500;2022-09-27T15:09:48;17.70;65.80
6556;DHT22;3311;48.32423000;14.29074500;2022-09-27T15:12:23;17.70;66.00
6556;DHT22;3311;48.32423000;14.29074500;2022-09-27T15:14:54;17.60;66.10
6556;DHT22;3311;48.32423000;14.29074500;2022-09-27T15:17:24;17.60;66.20
6556;DHT22;3311;48.32423000;14.29074500;2022-09-27T15:20:16;17.60;66.30
6556;DHT22;3311;48.32423000;14.29074500;2022-09-27T15:22:45;17.60;66.40
6556;DHT22;3311;48.32423000;14.29074500;2022-09-27T15:25:19;17.60;66.50
6556;DHT22;3311;48.32423000;14.29074500;2022-09-27T15:27:52;17.60;66.70
6556;DHT22;3311;48.32423000;14.29074500;2022-09-27T15:30:25;17.60;66.80
6556;DHT22;3311;48.32423000;14.29074500;2022-09-27T15:32:54;17.60;67.60
6556;DHT22;3311;48.32423000;14.29074500;2022-09-27T15:35:25;17.60;67.00
6556;DHT22;3311;48.32423000;14.29074500;2022-09-27T15:38:11;17.60;67.10
6556;DHT22;3311;48.32423000;14.29074500;2022-09-27T15:40:58;17.50;67.20
6556;DHT22;3311;48.32423000;14.29074500;2022-09-27T15:43:28;17.60;67.30
6556;DHT22;3311;48.32423000;14.29074500;2022-09-27T15:45:59;17.60;67.50
6556;DHT22;3311;48.32423000;14.29074500;2022-09-27T15:48:29;17.50;67.60
6556;DHT22;3311;48.32423000;14.29074500;2022-09-27T15:50:57;17.60;67.70
6556;DHT22;3311;48.32423000;14.29074500;2022-09-27T15:53:41;17.50;67.80
6556;DHT22;3311;48.32423000;14.29074500;2022-09-27T15:56:13;17.50;67.80
6556;DHT22;3311;48.32423000;14.29074500;2022-09-27T15:58:41;17.50;67.90
6556;DHT22;3311;48.32423000;14.29074500;2022-09-27T16:01:18;17.50;68.00
6556;DHT22;3311;48.32423000;14.29074500;2022-09-27T16:03:47;17.50;68.10
6556;DHT22;3311;48.32423000;14.29074500;2022-09-27T16:06:15;17.50;68.20
6556;DHT22;3311;48.32423000;14.29074500;2022-09-27T16:08:44;17.50;68.30
6556;DHT22;3311;48.32423000;14.29074500;2022-09-27T16:11:14;17.50;68.50
6556;DHT22;3311;48.32423000;14.29074500;2022-09-27T16:13:42;17.50;68.50
6556;DHT22;3311;48.32423000;14.29074500;2022-09-27T16:16:14;17.50;68.50
6556;DHT22;3311;48.32423000;14.29074500;2022-09-27T16:18:45;17.50;68.50
6556;DHT22;3311;48.32423000;14.29074500;2022-09-27T16:21:13;17.50;68.30
6556;DHT22;3311;48.32423000;14.29074500;2022-09-27T16:23:41;17.50;68.40
6556;DHT22;3311;48.32423000;14.29074500;2022-09-27T16:26:09;17.40;68.40
6556;DHT22;3311;48.32423000;14.29074500;2022-09-27T16:28:36;17.50;68.50
6556;DHT22;3311;48.32423000;14.29074500;2022-09-27T16:31:05;17.40;68.60
6556;DHT22;3311;48.32423000;14.29074500;2022-09-27T16:33:33;17.40;68.60
6556;DHT22;3311;48.32423000;14.29074500;2022-09-27T16:36:06;17.40;68.60
6556;DHT22;3311;48.32423000;14.29074500;2022-09-27T16:38:42;17.40;68.70
6556;DHT22;3311;48.32423000;14.29074500;2022-09-27T16:41:09;17.40;68.80
6556;DHT22;3311;48.32423000;14.29074500;2022-09-27T16:43:36;17.40;68.90
6556;DHT22;3311;48.32423000;14.29074500;2022-09-27T16:46:04;17.40;68.90
6556;DHT22;3311;48.32423000;14.29074500;2022-09-27T16:48:36;17.10;67.80
6556;DHT22;3311;48.32423000;14.29074500;2022-09-27T16:51:08;16.90;68.70
6556;DHT22;3311;48.32423000;14.29074500;2022-09-27T16:53:54;16.70;69.20
6556;DHT22;3311;48.32423000;14.29074500;2022-09-27T16:56:21;16.50;69.60
6556;DHT22;3311;48.32423000;14.29074500;2022-09-27T16:58:49;16.50;70.00
6556;DHT22;3311;48.32423000;14.29074500;2022-09-27T17:01:16;16.40;69.40
6556;DHT22;3311;48.32423000;14.29074500;2022-09-27T17:03:43;16.40;69.70
6556;DHT22;3311;48.32423000;14.29074500;2022-09-27T17:06:16;16.30;69.60
6556;DHT22;3311;48.32423000;14.29074500;2022-09-27T17:08:44;16.30;69.80
6556;DHT22;3311;48.32423000;14.29074500;2022-09-27T17:11:12;16.10;70.10
6556;DHT22;3311;48.32423000;14.29074500;2022-09-27T17:13:41;16.10;70.20
6556;DHT22;3311;48.32423000;14.29074500;2022-09-27T17:16:09;16.10;70.40
6556;DHT22;3311;48.32423000;14.29074500;2022-09-27T17:18:37;16.10;69.90
6556;DHT22;3311;48.32423000;14.29074500;2022-09-27T17:21:06;16.00;69.90
6556;DHT22;3311;48.32423000;14.29074500;2022-09-27T17:23:37;16.00;70.10
6556;DHT22;3311;48.32423000;14.29074500;2022-09-27T17:26:06;15.90;70.10
6556;DHT22;3311;48.32423000;14.29074500;2022-09-27T17:28:34;15.90;70.10
6556;DHT22;3311;48.32423000;14.29074500;2022-09-27T17:31:04;15.90;69.80
6556;DHT22;3311;48.32423000;14.29074500;2022-09-27T17:33:35;15.90;69.90
6556;DHT22;3311;48.32423000;14.29074500;2022-09-27T17:36:07;15.80;69.80
6556;DHT22;3311;48.32423000;14.29074500;2022-09-27T17:38:36;15.80;69.30
6556;DHT22;3311;48.32423000;14.29074500;2022-09-27T17:41:06;15.80;69.50
6556;DHT22;3311;48.32423000;14.29074500;2022-09-27T17:43:35;15.70;69.50
6556;DHT22;3311;48.32423000;14.29074500;2022-09-27T17:46:05;15.60;69.60
6556;DHT22;3311;48.32423000;14.29074500;2022-09-27T17:48:33;15.60;69.80
6556;DHT22;3311;48.32423000;14.29074500;2022-09-27T17:51:19;15.60;69.70
6556;DHT22;3311;48.32423000;14.29074500;2022-09-27T17:53:48;15.60;69.40
6556;DHT22;3311;48.32423000;14.29074500;2022-09-27T17:56:15;15.70;69.70
6556;DHT22;3311;48.32423000;14.29074500;2022-09-27T17:58:46;15.60;69.40
6556;DHT22;3311;48.32423000;14.29074500;2022-09-27T18:01:15;15.60;69.40
6556;DHT22;3311;48.32423000;14.29074500;2022-09-27T18:03:43;15.60;69.40
6556;DHT22;3311;48.32423000;14.29074500;2022-09-27T18:06:12;15.60;69.20
6556;DHT22;3311;48.32423000;14.29074500;2022-09-27T18:08:41;15.50;69.70
6556;DHT22;3311;48.32423000;14.29074500;2022-09-27T18:11:12;15.50;69.40
6556;DHT22;3311;48.32423000;14.29074500;2022-09-27T18:13:42;15.50;69.30
6556;DHT22;3311;48.32423000;14.29074500;2022-09-27T18:16:11;15.50;69.10
6556;DHT22;3311;48.32423000;14.29074500;2022-09-27T18:18:40;15.50;68.90
6556;DHT22;3311;48.32423000;14.29074500;2022-09-27T18:21:09;15.50;69.00
6556;DHT22;3311;48.32423000;14.29074500;2022-09-27T18:23:39;15.30;69.60
6556;DHT22;3311;48.32423000;14.29074500;2022-09-27T18:26:07;15.20;69.60
6556;DHT22;3311;48.32423000;14.29074500;2022-09-27T18:28:37;15.10;69.80
6556;DHT22;3311;48.32423000;14.29074500;2022-09-27T18:31:07;15.20;69.80
6556;DHT22;3311;48.32423000;14.29074500;2022-09-27T18:33:35;15.20;69.80
6556;DHT22;3311;48.32423000;14.29074500;2022-09-27T18:36:04;15.30;69.90
6556;DHT22;3311;48.32423000;14.29074500;2022-09-27T18:38:33;15.30;69.80
6556;DHT22;3311;48.32423000;14.29074500;2022-09-27T18:41:05;15.30;69.90
6556;DHT22;3311;48.32423000;14.29074500;2022-09-27T18:43:33;15.30;69.70
6556;DHT22;3311;48.32423000;14.29074500;2022-09-27T18:46:04;15.20;70.00
6556;DHT22;3311;48.32423000;14.29074500;2022-09-27T18:48:34;15.10;70.20
6556;DHT22;3311;48.32423000;14.29074500;2022-09-27T18:51:05;15.20;70.40
6556;DHT22;3311;48.32423000;14.29074500;2022-09-27T18:53:33;15.20;70.50
6556;DHT22;3311;48.32423000;14.29074500;2022-09-27T18:56:02;15.20;70.70
6556;DHT22;3311;48.32423000;14.29074500;2022-09-27T18:58:30;15.20;70.90
6556;DHT22;3311;48.32423000;14.29074500;2022-09-27T19:00:58;15.20;71.00
6556;DHT22;3311;48.32423000;14.29074500;2022-09-27T19:03:27;15.10;71.70
6556;DHT22;3311;48.32423000;14.29074500;2022-09-27T19:05:57;15.10;71.00
6556;DHT22;3311;48.32423000;14.29074500;2022-09-27T19:08:28;15.20;71.40
6556;DHT22;3311;48.32423000;14.29074500;2022-09-27T19:11:03;15.10;70.60
6556;DHT22;3311;48.32423000;14.29074500;2022-09-27T19:13:31;15.10;70.70
6556;DHT22;3311;48.32423000;14.29074500;2022-09-27T19:16:00;15.10;70.80
6556;DHT22;3311;48.32423000;14.29074500;2022-09-27T19:18:34;15.10;70.80
6556;DHT22;3311;48.32423000;14.29074500;2022-09-27T19:21:09;15.10;70.70
6556;DHT22;3311;48.32423000;14.29074500;2022-09-27T19:23:39;15.20;70.70
6556;DHT22;3311;48.32423000;14.29074500;2022-09-27T19:26:10;15.20;70.60
6556;DHT22;3311;48.32423000;14.29074500;2022-09-27T19:28:41;15.20;70.50
6556;DHT22;3311;48.32423000;14.29074500;2022-09-27T19:31:12;15.20;70.40
6556;DHT22;3311;48.32423000;14.29074500;2022-09-27T19:33:42;15.20;70.40
6556;DHT22;3311;48.32423000;14.29074500;2022-09-27T19:36:11;15.30;70.10
6556;DHT22;3311;48.32423000;14.29074500;2022-09-27T19:38:39;15.20;70.00
6556;DHT22;3311;48.32423000;14.29074500;2022-09-27T19:41:08;15.20;70.10
6556;DHT22;3311;48.32423000;14.29074500;2022-09-27T19:43:37;15.20;70.00
6556;DHT22;3311;48.32423000;14.29074500;2022-09-27T19:46:12;15.10;69.90
6556;DHT22;3311;48.32423000;14.29074500;2022-09-27T19:48:47;15.00;70.30
6556;DHT22;3311;48.32423000;14.29074500;2022-09-27T19:51:17;15.10;70.40
6556;DHT22;3311;48.32423000;14.29074500;2022-09-27T19:53:49;15.00;70.40
6556;DHT22;3311;48.32423000;14.29074500;2022-09-27T19:56:17;15.10;70.30
6556;DHT22;3311;48.32423000;14.29074500;2022-09-27T19:58:47;15.20;70.10